createdAt,value
2018-12-18T00:00:52.584Z,4.06
2018-12-18T00:03:19.014Z,3.99
2018-12-18T00:05:45.290Z,4.01
2018-12-18T00:08:11.676Z,3.99
2018-12-18T00:10:43.816Z,4.01
2018-12-18T00:13:10.104Z,4.11
2018-12-18T00:15:36.303Z,4.25
2018-12-18T00:18:02.730Z,4.12
2018-12-18T00:20:28.880Z,3.77
2018-12-18T00:22:55.037Z,3.90
2018-12-18T00:25:21.382Z,4.02
2018-12-18T00:27:47.512Z,3.94
2018-12-18T00:30:13.706Z,3.48
2018-12-18T00:32:39.865Z,3.23
2018-12-18T00:35:06.120Z,3.38
2018-12-18T00:37:32.289Z,3.63
2018-12-18T00:39:58.433Z,3.64
2018-12-18T00:42:24.585Z,3.62
2018-12-18T00:44:50.794Z,3.82
2018-12-18T00:47:17.022Z,4.11
2018-12-18T00:49:43.164Z,4.35
2018-12-18T00:52:09.510Z,4.13
2018-12-18T00:54:35.737Z,3.77
2018-12-18T00:57:01.906Z,3.46
2018-12-18T00:59:28.161Z,3.53
2018-12-18T01:01:59.348Z,3.65
2018-12-18T01:04:25.563Z,3.98
2018-12-18T01:06:51.791Z,4.16
2018-12-18T01:09:18.019Z,4.18
2018-12-18T01:11:44.188Z,4.37
2018-12-18T01:14:10.678Z,4.16
2018-12-18T01:16:36.817Z,4.36
2018-12-18T01:19:03.135Z,4.37
2018-12-18T01:21:29.539Z,4.49
2018-12-18T01:23:55.765Z,4.28
2018-12-18T01:26:22.024Z,4.15
2018-12-18T01:28:48.192Z,4.25
2018-12-18T01:31:14.446Z,4.12
2018-12-18T01:33:47.600Z,4.32
2018-12-18T01:36:13.750Z,4.47
2018-12-18T01:38:40.094Z,4.56
2018-12-18T01:41:06.261Z,4.42
2018-12-18T01:43:32.582Z,4.40
2018-12-18T01:45:58.810Z,4.55
2018-12-18T01:48:24.989Z,4.39
2018-12-18T01:50:51.267Z,4.39
2018-12-18T01:53:17.499Z,4.38
2018-12-18T01:55:43.666Z,4.44
2018-12-18T01:58:09.949Z,4.57
2018-12-18T02:00:42.990Z,4.32
2018-12-18T02:03:09.179Z,4.26
2018-12-18T02:05:35.358Z,4.31
2018-12-18T02:08:01.585Z,4.12
2018-12-18T02:10:27.814Z,4.16
2018-12-18T02:12:54.041Z,4.36
2018-12-18T02:15:20.270Z,4.24
2018-12-18T02:17:46.505Z,4.03
2018-12-18T02:20:12.827Z,4.29
2018-12-18T02:22:39.044Z,3.84
2018-12-18T02:25:05.269Z,4.10
2018-12-18T02:27:31.441Z,3.99
2018-12-18T02:29:57.582Z,3.97
2018-12-18T02:32:23.903Z,4.06
2018-12-18T02:34:50.126Z,4.23
2018-12-18T02:37:16.295Z,4.11
2018-12-18T02:39:42.473Z,4.08
2018-12-18T02:42:08.614Z,4.26
2018-12-18T02:44:34.757Z,4.02
2018-12-18T02:47:00.929Z,4.25
2018-12-18T02:49:27.071Z,4.25
2018-12-18T02:51:53.314Z,4.10
2018-12-18T02:54:19.535Z,3.89
2018-12-18T02:56:45.676Z,4.15
2018-12-18T02:59:11.957Z,4.29
2018-12-18T03:01:38.190Z,4.48
2018-12-18T03:04:04.419Z,4.21
2018-12-18T03:06:30.649Z,4.23
2018-12-18T03:08:56.826Z,4.15
2018-12-18T03:11:23.130Z,4.28
2018-12-18T03:13:49.268Z,4.29
2018-12-18T03:16:15.585Z,4.38
2018-12-18T03:18:41.721Z,4.16
2018-12-18T03:21:08.043Z,4.38
2018-12-18T03:23:34.213Z,4.14
2018-12-18T03:26:00.351Z,4.11
2018-12-18T03:28:26.899Z,4.13
2018-12-18T03:30:53.159Z,4.21
2018-12-18T03:33:19.301Z,4.11
2018-12-18T03:35:45.614Z,4.28
2018-12-18T03:38:11.840Z,4.25
2018-12-18T03:40:38.039Z,4.09
2018-12-18T03:43:04.206Z,3.98
2018-12-18T03:45:30.373Z,4.01
2018-12-18T03:47:56.501Z,4.15
2018-12-18T03:50:22.644Z,4.28
2018-12-18T03:52:48.813Z,4.01
2018-12-18T03:55:14.970Z,3.96
2018-12-18T03:57:41.458Z,4.01
2018-12-18T04:00:07.702Z,4.13
2018-12-18T04:02:34.117Z,4.11
2018-12-18T04:05:00.550Z,4.20
2018-12-18T04:07:26.724Z,4.31
2018-12-18T04:09:52.974Z,4.17
2018-12-18T04:12:21.301Z,4.55
2018-12-18T04:14:47.473Z,4.19
2018-12-18T04:17:13.707Z,4.13
2018-12-18T04:19:39.965Z,4.01
2018-12-18T04:22:06.163Z,4.10
2018-12-18T04:24:32.302Z,4.12
2018-12-18T04:26:58.416Z,4.15
2018-12-18T04:29:24.672Z,4.27
2018-12-18T04:31:50.844Z,4.26
2018-12-18T04:34:17.099Z,4.00
2018-12-18T04:36:43.299Z,4.22
2018-12-18T04:39:09.583Z,4.27
2018-12-18T04:41:35.811Z,4.18
2018-12-18T04:44:02.052Z,4.31
2018-12-18T04:46:28.443Z,4.39
2018-12-18T04:48:54.702Z,4.44
2018-12-18T04:51:20.878Z,4.51
2018-12-18T04:53:47.122Z,4.53
2018-12-18T04:56:15.248Z,4.32
2018-12-18T04:58:41.422Z,4.31
2018-12-18T05:01:07.681Z,4.26
2018-12-18T05:03:33.860Z,4.28
2018-12-18T05:06:00.106Z,4.27
2018-12-18T05:08:26.337Z,4.35
2018-12-18T05:10:52.572Z,4.42
2018-12-18T05:13:18.999Z,4.21
2018-12-18T05:15:45.132Z,4.17
2018-12-18T05:18:11.292Z,4.32
2018-12-18T05:20:37.486Z,4.32
2018-12-18T05:23:03.637Z,4.08
2018-12-18T05:25:29.777Z,4.15
2018-12-18T05:27:55.964Z,4.26
2018-12-18T05:30:22.148Z,4.29
2018-12-18T05:32:48.273Z,4.33
2018-12-18T05:35:14.481Z,3.91
2018-12-18T05:37:40.600Z,3.97
2018-12-18T05:40:06.740Z,4.09
2018-12-18T05:42:32.934Z,3.78
2018-12-18T05:44:59.069Z,4.17
2018-12-18T05:47:25.197Z,4.09
2018-12-18T05:49:51.349Z,4.08
2018-12-18T05:52:17.489Z,3.93
2018-12-18T05:54:43.644Z,4.01
2018-12-18T05:57:09.856Z,3.94
2018-12-18T05:59:36.129Z,4.03
2018-12-18T06:02:02.316Z,3.89
2018-12-18T06:04:28.584Z,3.84
2018-12-18T06:06:54.728Z,3.47
2018-12-18T06:09:20.897Z,3.78
2018-12-18T06:11:47.234Z,4.20
2018-12-18T06:14:13.365Z,4.24
2018-12-18T06:16:39.719Z,3.96
2018-12-18T06:19:05.917Z,3.90
2018-12-18T06:21:32.121Z,3.91
2018-12-18T06:23:58.253Z,4.08
2018-12-18T06:26:24.421Z,4.27
2018-12-18T06:28:50.655Z,4.15
2018-12-18T06:31:16.881Z,4.40
2018-12-18T06:33:43.056Z,4.46
2018-12-18T06:36:09.188Z,4.62
2018-12-18T06:38:35.362Z,4.56
2018-12-18T06:41:01.545Z,4.47
2018-12-18T06:43:27.815Z,4.52
2018-12-18T06:45:53.962Z,4.55
2018-12-18T06:48:20.118Z,4.64
2018-12-18T06:50:46.277Z,4.50
2018-12-18T06:53:12.413Z,4.71
2018-12-18T06:55:38.569Z,4.62
2018-12-18T06:58:04.760Z,4.67
2018-12-18T07:00:30.910Z,4.60
2018-12-18T07:02:57.202Z,4.52
2018-12-18T07:05:23.402Z,4.76
2018-12-18T07:07:49.586Z,4.36
2018-12-18T07:10:15.754Z,4.78
2018-12-18T07:12:42.105Z,5.07
2018-12-18T07:15:08.265Z,5.26
2018-12-18T07:17:34.422Z,4.96
2018-12-18T07:20:00.589Z,4.87
2018-12-18T07:22:26.814Z,4.48
2018-12-18T07:24:52.966Z,4.20
2018-12-18T07:27:19.300Z,4.77
2018-12-18T07:29:45.468Z,4.74
2018-12-18T07:32:11.637Z,4.89
2018-12-18T07:34:37.785Z,4.66
2018-12-18T07:37:03.973Z,4.93
2018-12-18T07:39:30.183Z,5.16
2018-12-18T07:41:56.429Z,5.10
2018-12-18T07:44:22.583Z,5.27
2018-12-18T07:46:48.773Z,5.22
2018-12-18T07:49:15.113Z,5.26
2018-12-18T07:51:41.374Z,5.69
2018-12-18T07:54:07.573Z,5.52
2018-12-18T07:56:33.797Z,5.44
2018-12-18T07:58:59.941Z,5.15
2018-12-18T08:01:26.256Z,5.64
2018-12-18T08:03:52.385Z,5.83
2018-12-18T08:14:40.487Z,5.23
2018-12-18T08:17:07.593Z,5.23
2018-12-18T08:19:34.666Z,5.03
2018-12-18T08:33:17.689Z,5.66
2018-12-18T08:35:43.846Z,5.84
2018-12-18T08:38:10.113Z,5.78
2018-12-18T08:40:36.307Z,5.93
2018-12-18T08:43:02.455Z,5.88
2018-12-18T08:45:28.612Z,5.80
2018-12-18T08:47:54.773Z,5.93
2018-12-18T08:53:01.049Z,6.85
2018-12-18T08:55:27.197Z,7.28
2018-12-18T08:57:53.484Z,6.54
2018-12-18T09:00:19.714Z,6.37
2018-12-18T09:02:45.860Z,5.85
2018-12-18T09:05:12.167Z,5.73
2018-12-18T09:07:38.333Z,5.45
2018-12-18T09:10:07.252Z,5.63
2018-12-18T09:23:24.261Z,7.08
2018-12-18T09:25:50.571Z,6.69
2018-12-18T09:28:16.815Z,6.59
2018-12-18T09:30:43.010Z,6.44
2018-12-18T09:33:09.150Z,6.54
2018-12-18T09:35:35.475Z,6.67
2018-12-18T09:38:08.085Z,6.45
2018-12-18T09:40:40.426Z,6.48
2018-12-18T09:43:12.806Z,6.25
2018-12-18T09:45:39.027Z,6.30
2018-12-18T09:48:05.172Z,6.22
2018-12-18T09:50:31.512Z,5.98
2018-12-18T09:52:57.740Z,6.17
2018-12-18T09:55:23.934Z,5.96
2018-12-18T09:57:56.308Z,6.37
2018-12-18T10:00:22.450Z,6.37
2018-12-18T10:02:48.581Z,6.48
2018-12-18T10:05:14.788Z,6.55
2018-12-18T10:07:41.048Z,6.08
2018-12-18T10:10:07.220Z,4.96
2018-12-18T10:12:39.502Z,5.26
2018-12-18T10:15:05.792Z,4.92
2018-12-18T10:17:31.928Z,5.26
2018-12-18T10:19:58.305Z,5.28
2018-12-18T10:22:24.528Z,5.46
2018-12-18T10:24:50.681Z,5.45
2018-12-18T10:27:16.845Z,4.95
2018-12-18T10:29:43.239Z,3.98
2018-12-18T10:32:09.637Z,4.22
2018-12-18T10:34:35.813Z,4.12
2018-12-18T10:37:02.128Z,3.93
2018-12-18T10:39:28.294Z,4.09
2018-12-18T10:41:54.553Z,4.10
2018-12-18T10:44:20.779Z,3.85
2018-12-18T10:46:47.012Z,4.00
2018-12-18T10:49:13.190Z,4.08
2018-12-18T10:51:39.349Z,4.27
2018-12-18T10:54:05.689Z,4.46
2018-12-18T10:56:31.950Z,4.92
2018-12-18T10:58:58.178Z,5.05
2018-12-18T11:01:30.285Z,5.24
2018-12-18T11:03:56.542Z,5.48
2018-12-18T11:06:22.684Z,5.41
2018-12-18T11:08:48.809Z,5.66
2018-12-18T11:11:14.994Z,5.76
2018-12-18T11:13:41.246Z,5.64
2018-12-18T11:16:07.507Z,5.90
2018-12-18T11:18:33.743Z,5.18
2018-12-18T11:20:59.881Z,5.28
2018-12-18T11:23:26.171Z,4.95
2018-12-18T11:25:52.356Z,4.35
2018-12-18T11:28:18.617Z,4.48
2018-12-18T11:30:44.841Z,4.24
2018-12-18T11:33:11.029Z,4.30
2018-12-18T11:35:37.328Z,4.75
2018-12-18T11:38:03.500Z,5.32
2018-12-18T11:40:29.925Z,4.92
2018-12-18T11:42:57.009Z,4.35
2018-12-18T11:45:23.845Z,4.02
2018-12-18T11:47:50.041Z,4.41
2018-12-18T11:50:16.334Z,4.31
2018-12-18T11:52:42.491Z,5.09
2018-12-18T11:55:08.994Z,5.15
2018-12-18T11:57:35.189Z,4.78
2018-12-18T12:00:01.472Z,4.54
2018-12-18T12:02:27.660Z,4.74
2018-12-18T12:04:53.834Z,4.74
2018-12-18T12:07:19.985Z,4.66
2018-12-18T12:09:46.137Z,4.55
2018-12-18T12:12:12.386Z,4.67
2018-12-18T12:14:38.774Z,4.89
2018-12-18T12:17:04.978Z,4.88
2018-12-18T12:19:31.162Z,4.42
2018-12-18T12:21:57.466Z,4.37
2018-12-18T12:24:23.725Z,4.59
2018-12-18T12:26:52.105Z,4.75
2018-12-18T12:29:25.398Z,4.79
2018-12-18T12:31:51.626Z,4.60
2018-12-18T12:34:17.768Z,4.31
2018-12-18T12:36:44.052Z,4.02
2018-12-18T12:39:10.276Z,4.22
2018-12-18T12:41:36.508Z,4.42
2018-12-18T12:44:02.702Z,4.66
2018-12-18T12:46:28.964Z,4.94
2018-12-18T12:48:55.222Z,4.83
2018-12-18T12:51:21.406Z,4.92
2018-12-18T12:53:47.641Z,4.91
2018-12-18T12:56:13.870Z,4.64
2018-12-18T12:58:40.094Z,4.70
2018-12-18T13:01:06.244Z,4.58
2018-12-18T13:03:32.407Z,4.65
2018-12-18T13:05:58.815Z,4.46
2018-12-18T13:08:24.954Z,4.74
2018-12-18T13:10:51.096Z,4.38
2018-12-18T13:13:17.257Z,4.36
2018-12-18T13:15:43.382Z,4.41
2018-12-18T13:18:09.528Z,3.95
2018-12-18T13:20:35.689Z,3.84
2018-12-18T13:23:01.830Z,4.19
2018-12-18T13:25:27.969Z,4.17
2018-12-18T13:27:54.453Z,4.04
2018-12-18T13:30:20.651Z,4.10
2018-12-18T13:32:46.880Z,3.49
2018-12-18T13:35:13.136Z,3.88
2018-12-18T13:37:39.297Z,3.93
2018-12-18T13:40:05.592Z,3.85
2018-12-18T13:42:31.774Z,3.79
2018-12-18T13:44:57.934Z,3.80
2018-12-18T13:47:27.164Z,3.77
2018-12-18T13:49:52.481Z,4.00
2018-12-18T13:52:18.629Z,4.01
2018-12-18T13:54:44.777Z,3.80
2018-12-18T13:57:10.980Z,3.95
2018-12-18T13:59:44.079Z,3.85
2018-12-18T14:02:10.238Z,3.61
2018-12-18T14:04:36.675Z,3.78
2018-12-18T14:07:02.873Z,3.79
2018-12-18T14:09:29.045Z,3.81
2018-12-18T14:11:55.324Z,3.87
2018-12-18T14:14:21.586Z,3.90
2018-12-18T14:16:47.814Z,3.76
2018-12-18T14:19:14.042Z,3.74
2018-12-18T14:21:40.213Z,3.41
2018-12-18T14:24:06.466Z,3.43
2018-12-18T14:26:32.726Z,3.45
2018-12-18T14:28:59.125Z,3.17
2018-12-18T14:31:25.328Z,3.36
2018-12-18T14:33:51.615Z,3.29
2018-12-18T14:36:17.813Z,3.43
2018-12-18T14:38:44.073Z,3.19
2018-12-18T14:41:10.265Z,3.52
2018-12-18T14:43:36.445Z,2.83
2018-12-18T14:46:02.642Z,3.10
2018-12-18T14:48:28.980Z,2.80
2018-12-18T14:50:55.173Z,2.95
2018-12-18T14:53:28.338Z,2.74
2018-12-18T14:55:54.594Z,2.53
2018-12-18T14:58:20.821Z,2.82
2018-12-18T15:00:47.086Z,2.50
2018-12-18T15:03:13.486Z,2.74
2018-12-18T15:05:39.744Z,2.68
2018-12-18T15:08:05.972Z,2.37
2018-12-18T15:10:32.149Z,2.37
2018-12-18T15:12:58.325Z,2.38
2018-12-18T15:15:24.465Z,2.52
2018-12-18T15:17:50.654Z,2.84
2018-12-18T15:20:16.876Z,2.92
2018-12-18T15:22:50.096Z,2.75
2018-12-18T15:25:16.261Z,2.88
2018-12-18T15:27:42.406Z,2.82
2018-12-18T15:30:08.753Z,2.81
2018-12-18T15:32:34.941Z,2.71
2018-12-18T15:35:01.208Z,2.89
2018-12-18T15:37:27.362Z,2.87
2018-12-18T15:39:53.662Z,3.02
2018-12-18T15:42:20.094Z,2.95
2018-12-18T15:44:46.318Z,2.61
2018-12-18T15:47:12.488Z,2.52
2018-12-18T15:49:45.505Z,2.51
2018-12-18T15:52:11.793Z,2.34
2018-12-18T15:54:37.964Z,2.44
2018-12-18T15:57:04.113Z,2.55
2018-12-18T15:59:30.478Z,2.60
2018-12-18T16:01:56.626Z,2.60
2018-12-18T16:04:22.931Z,2.71
2018-12-18T16:06:49.179Z,2.49
2018-12-18T16:09:15.358Z,2.31
2018-12-18T16:14:34.438Z,2.25
2018-12-18T16:17:00.700Z,2.38
2018-12-18T16:19:27.541Z,2.40
2018-12-18T16:21:54.136Z,2.22
2018-12-18T16:24:20.401Z,2.08
2018-12-18T16:26:46.638Z,2.13
2018-12-18T16:29:12.809Z,2.31
2018-12-18T16:31:39.222Z,2.22
2018-12-18T16:34:05.519Z,2.30
2018-12-18T16:36:31.667Z,2.20
2018-12-18T16:38:57.949Z,2.27
2018-12-18T16:41:24.160Z,2.43
2018-12-18T16:43:50.451Z,2.27
2018-12-18T16:46:16.658Z,2.23
2018-12-18T16:48:42.885Z,1.86
2018-12-18T16:51:09.036Z,2.02
2018-12-18T16:53:35.312Z,2.37
2018-12-18T16:56:01.542Z,2.40
2018-12-18T16:58:27.772Z,2.43
2018-12-18T17:00:54.024Z,2.55
2018-12-18T17:03:20.252Z,2.33
2018-12-18T17:05:46.406Z,2.33
2018-12-18T17:08:12.707Z,2.46
2018-12-18T17:10:38.858Z,2.37
2018-12-18T17:13:05.133Z,2.31
2018-12-18T17:15:31.395Z,2.37
2018-12-18T17:17:57.537Z,2.46
2018-12-18T17:20:23.813Z,2.45
2018-12-18T17:22:50.074Z,2.43
2018-12-18T17:25:16.284Z,2.24
2018-12-18T17:27:42.517Z,2.37
2018-12-18T17:30:08.929Z,2.17
2018-12-18T17:32:35.600Z,2.12
2018-12-18T17:35:01.828Z,2.55
2018-12-18T17:37:28.230Z,2.17
2018-12-18T17:39:54.437Z,2.30
2018-12-18T17:42:20.693Z,2.07
2018-12-18T17:44:46.874Z,2.36
2018-12-18T17:47:13.029Z,2.69
2018-12-18T17:49:39.186Z,2.50
2018-12-18T17:52:05.628Z,2.63
2018-12-18T17:54:31.858Z,2.48
2018-12-18T17:56:58.017Z,2.44
2018-12-18T17:59:24.177Z,2.58
2018-12-18T18:01:50.329Z,2.29
2018-12-18T18:04:16.490Z,2.44
2018-12-18T18:06:42.653Z,2.05
2018-12-18T18:09:09.100Z,2.12
2018-12-18T18:11:35.389Z,2.21
2018-12-18T18:14:01.597Z,2.43
2018-12-18T18:16:27.904Z,2.08
2018-12-18T18:18:54.130Z,1.90
2018-12-18T18:21:20.301Z,2.29
2018-12-18T18:23:46.458Z,2.57
2018-12-18T18:26:14.223Z,2.43
2018-12-18T18:28:40.462Z,2.49
2018-12-18T18:31:06.617Z,2.06
2018-12-18T18:33:32.896Z,1.96
2018-12-18T18:35:59.369Z,1.99
2018-12-18T18:38:25.600Z,1.98
2018-12-18T18:40:52.028Z,2.18
2018-12-18T18:43:18.265Z,2.28
2018-12-18T18:45:44.435Z,2.15
2018-12-18T18:48:10.609Z,2.22
2018-12-18T18:50:36.912Z,2.04
2018-12-18T18:53:03.089Z,2.03
2018-12-18T18:55:29.281Z,2.43
2018-12-18T18:57:55.503Z,2.43
2018-12-18T19:00:22.032Z,2.47
2018-12-18T19:02:48.556Z,2.11
2018-12-18T19:05:14.935Z,2.25
2018-12-18T19:07:41.424Z,2.27
2018-12-18T19:10:08.418Z,2.17
2018-12-18T19:12:34.841Z,2.26
2018-12-18T19:15:01.339Z,2.09
2018-12-18T19:17:27.697Z,1.81
2018-12-18T19:19:54.105Z,2.19
2018-12-18T19:22:20.331Z,2.25
2018-12-18T19:24:46.498Z,2.04
2018-12-18T19:27:12.763Z,1.90
2018-12-18T19:29:38.923Z,2.05
2018-12-18T19:32:05.148Z,2.22
2018-12-18T19:34:31.353Z,2.46
2018-12-18T19:36:57.781Z,2.15
2018-12-18T19:39:24.092Z,2.08
2018-12-18T19:41:50.333Z,2.08
2018-12-18T19:44:16.518Z,2.06
2018-12-18T19:46:42.682Z,2.24
2018-12-18T19:49:08.899Z,2.50
2018-12-18T19:51:35.094Z,2.58
2018-12-18T19:54:01.277Z,2.41
2018-12-18T19:56:27.480Z,2.42
2018-12-18T19:58:53.649Z,2.71
2018-12-18T20:01:19.818Z,2.87
2018-12-18T20:03:46.056Z,2.74
2018-12-18T20:06:12.238Z,2.82
2018-12-18T20:08:38.408Z,2.62
2018-12-18T20:11:04.641Z,2.59
2018-12-18T20:13:31.157Z,2.49
2018-12-18T20:15:57.526Z,2.55
2018-12-18T20:18:23.768Z,2.46
2018-12-18T20:20:50.077Z,2.28
2018-12-18T20:23:16.256Z,2.44
2018-12-18T20:25:42.724Z,2.30
2018-12-18T20:28:08.941Z,2.34
2018-12-18T20:30:35.256Z,2.48
2018-12-18T20:33:01.476Z,2.52
2018-12-18T20:35:27.777Z,2.32
2018-12-18T20:37:53.954Z,2.58
2018-12-18T20:40:20.161Z,2.58
2018-12-18T20:42:46.372Z,2.30
2018-12-18T20:45:12.520Z,2.45
2018-12-18T20:47:38.724Z,2.31
2018-12-18T20:50:05.646Z,2.43
2018-12-18T20:52:31.819Z,2.55
2018-12-18T20:54:58.005Z,2.44
2018-12-18T20:57:24.176Z,2.37
2018-12-18T20:59:50.333Z,2.24
2018-12-18T21:02:16.510Z,2.34
2018-12-18T21:04:42.668Z,2.58
2018-12-18T21:07:08.797Z,2.97
2018-12-18T21:09:35.009Z,2.73
2018-12-18T21:12:01.177Z,2.69
2018-12-18T21:14:27.344Z,2.79
2018-12-18T21:16:53.518Z,2.89
2018-12-18T21:19:19.653Z,2.61
2018-12-18T21:21:45.809Z,2.80
2018-12-18T21:24:11.996Z,2.95
2018-12-18T21:26:38.148Z,2.85
2018-12-18T21:29:04.301Z,2.68
2018-12-18T21:31:30.483Z,3.00
2018-12-18T21:33:56.630Z,3.02
2018-12-18T21:36:22.789Z,3.04
2018-12-18T21:38:49.003Z,3.12
2018-12-18T21:41:15.127Z,3.04
2018-12-18T21:43:41.281Z,2.92
2018-12-18T21:46:07.520Z,2.76
2018-12-18T21:48:33.689Z,2.71
2018-12-18T21:50:59.874Z,2.75
2018-12-18T21:53:26.085Z,2.45
2018-12-18T21:55:52.284Z,2.59
2018-12-18T21:58:18.472Z,2.49
2018-12-18T22:00:44.688Z,2.64
2018-12-18T22:03:10.851Z,2.67
2018-12-18T22:05:37.004Z,2.78
2018-12-18T22:08:03.345Z,2.49
2018-12-18T22:10:29.510Z,2.68
2018-12-18T22:12:55.665Z,2.88
2018-12-18T22:15:21.842Z,2.43
2018-12-18T22:17:47.994Z,2.70
2018-12-18T22:20:14.128Z,2.71
2018-12-18T22:22:40.294Z,2.48
2018-12-18T22:25:06.448Z,2.15
2018-12-18T22:27:32.603Z,2.14
2018-12-18T22:29:58.778Z,2.09
2018-12-18T22:32:24.923Z,2.15
2018-12-18T22:34:51.077Z,2.09
2018-12-18T22:37:17.248Z,1.91
2018-12-18T22:39:43.427Z,2.17
2018-12-18T22:42:09.600Z,2.09
2018-12-18T22:44:35.811Z,2.13
2018-12-18T22:47:01.953Z,2.17
2018-12-18T22:49:28.089Z,2.10
2018-12-18T22:51:54.258Z,2.07
2018-12-18T22:54:20.423Z,2.22
2018-12-18T22:56:46.561Z,2.00
2018-12-18T22:59:12.753Z,1.85
2018-12-18T23:01:44.071Z,1.90
2018-12-18T23:04:10.294Z,2.11
2018-12-18T23:06:36.513Z,2.05
2018-12-18T23:09:05.371Z,2.17
2018-12-18T23:11:31.778Z,2.22
2018-12-18T23:13:57.979Z,2.15
2018-12-18T23:16:24.165Z,2.23
2018-12-18T23:18:50.335Z,1.87
2018-12-18T23:21:16.539Z,1.90
2018-12-18T23:23:42.709Z,1.90
2018-12-18T23:26:08.879Z,2.22
2018-12-18T23:28:35.097Z,2.32
2018-12-18T23:31:01.300Z,2.49
2018-12-18T23:33:27.496Z,2.34
2018-12-18T23:35:53.697Z,2.16
2018-12-18T23:38:19.891Z,2.24
2018-12-18T23:40:46.070Z,2.31
2018-12-18T23:43:12.290Z,1.68
2018-12-18T23:45:38.508Z,1.65
2018-12-18T23:48:04.694Z,1.58
2018-12-18T23:50:30.904Z,1.67
2018-12-18T23:52:57.081Z,1.67
2018-12-18T23:55:23.261Z,1.80
2018-12-18T23:57:49.451Z,1.94
